Bois-Des-Filion, Canada
Current Conditions -  °F | °C
As of 11:00 AM on Monday 24 Nov 2014 (Local Time) from CYUL Reporting Station
Broken Clouds Broken Clouds  
Wind Chill: 54°   Ceiling: 5200
Heat Index: 54°   Visibility: 15mi
Dew Point: 50°   Wind: 20mph
Humidity: 88%   Direction: 150°SSE
Pressure: 29.36"   Gusts: 29mph
Location:  45.65°N, 73.77°W
Report Text: CYUL 241600Z 15017G25KT 15SM BKN052 BKN240 12/10 A2936 RMK SC6CI1 SLP944 DENSITY ALT 400FT
Loading
Personal Weather Stations






























Interactive Weather Map New forecast layout! Learn more

10-Day Weather Forecast

Advertisements
Track Severe Weather on mobile